Latest Weather Observations for Hopetoun Airport

IDV60801

Issued at 10:42 pm EST Sunday 21 July 2019 (issued every 10 minutes, with the page automatically refreshed every 10 minutes)

About weather observations | Map of weather stations | Latest weather observations for VIC | Other Formats
Station Details ID: 077010 Name: HOPETOUN AIRPORT Lat: -35.72 Lon: 142.36 Height: 77.3 m
Data from the previous 72 hours. | See also: Recent months at Hopetoun Airport
Date/Time
EST
Temp
°C
App
Temp
°C
Dew
Point
°C
Rel
Hum
%
Delta-T
°C
Wind Press
QNH
hPa
Press
MSL
hPa
Rain since
9am
mm
Dir  Spd
km/h
Gust
km/h
Spd
kts
Gust
kts
21/10:30pm 4.1 1.3 2.1 87 0.8 N 6 7 3 4 1015.6 1015.8 0.0
21/10:00pm 4.5 2.1 2.4 86 0.8 N 4 6 2 3 1015.6 1015.8 0.0
21/09:30pm 5.6 2.9 2.6 81 1.2 N 6 6 3 3 1015.7 1015.9 0.0
21/09:00pm 5.5 2.8 2.7 82 1.1 N 6 6 3 3 1015.7 1015.9 0.0
21/08:30pm 5.7 3.0 2.7 81 1.2 N 6 7 3 4 1015.5 1015.7 0.0
21/08:00pm 6.3 3.6 2.8 78 1.5 N 6 7 3 4 1015.4 1015.6 0.0
21/07:30pm 7.9 5.5 4.1 77 1.7 NNW 6 6 3 3 1015.1 1015.3 0.0
21/07:00pm 8.7 7.0 3.9 72 2.1 WNW 2 2 1 1 1014.8 1015.0 0.0
21/06:30pm 10.4 8.5 5.0 69 2.5 W 4 4 2 2 1014.4 1014.6 0.0
21/06:00pm 11.7 9.8 4.9 63 3.1 WSW 4 6 2 3 1014.0 1014.2 0.0
21/05:30pm 12.7 10.7 6.1 64 3.1 W 6 6 3 3 1013.6 1013.8 0.0
21/05:00pm 14.4 12.2 6.0 57 4.0 W 7 9 4 5 1013.2 1013.4 0.0
21/04:30pm 15.1 12.6 4.8 50 4.8 WSW 7 9 4 5 1013.1 1013.3 0.0
21/04:00pm 15.9 12.2 4.3 46 5.4 W 13 17 7 9 1012.9 1013.1 0.0
21/03:30pm 16.1 12.8 4.8 47 5.4 WSW 11 19 6 10 1012.6 1012.8 0.0
21/03:00pm 15.9 12.2 4.6 47 5.3 WSW 13 19 7 10 1012.6 1012.8 0.0
21/02:30pm 15.8 11.7 4.2 46 5.4 W 15 20 8 11 1012.5 1012.7 0.0
21/02:00pm 15.8 13.1 5.7 51 4.9 WNW 9 15 5 8 1012.5 1012.7 0.0
21/01:30pm 15.4 12.3 5.6 52 4.7 W 11 30 6 16 1012.7 1012.9 0.0
21/01:00pm 14.4 10.6 6.0 57 4.0 W 15 24 8 13 1013.1 1013.3 0.0
21/12:30pm 14.2 10.5 6.1 58 3.9 WSW 15 20 8 11 1013.4 1013.6 0.0
21/12:00pm 14.4 9.8 6.7 60 3.7 WSW 20 28 11 15 1013.7 1013.9 0.0
21/11:30am 14.1 9.8 6.9 62 3.5 WSW 19 28 10 15 1013.8 1014.0 0.0
21/11:00am 13.4 9.2 7.4 67 2.9 WSW 19 22 10 12 1013.7 1013.9 0.0
21/10:30am 13.0 9.2 7.7 70 2.6 W 17 22 9 12 1013.6 1013.8 0.0
21/10:00am 12.5 8.8 8.0 74 2.2 W 17 22 9 12 1013.4 1013.6 0.0
21/09:30am 11.5 8.1 7.6 77 1.9 W 15 17 8 9 1013.2 1013.4 0.0
21/09:00am 8.6 6.3 5.7 82 1.3 WNW 7 9 4 5 1012.9 1013.1 0.0
21/08:30am 6.3 3.6 3.5 82 1.2 NW 7 7 4 4 1012.5 1012.7 0.0
21/08:00am 6.5 3.8 3.5 81 1.3 NW 7 9 4 5 1012.0 1012.1 0.0
21/07:30am 7.3 3.8 3.4 76 1.7 NW 11 11 6 6 1011.7 1011.8 0.0
21/07:00am 8.2 4.7 3.3 71 2.1 NNW 11 13 6 7 1011.2 1011.3 0.0
21/06:30am 8.2 4.6 3.1 70 2.2 NNW 11 11 6 6 1010.8 1010.9 0.0
21/06:00am 8.7 4.7 2.9 67 2.5 NNW 13 13 7 7 1010.6 1010.7 0.0
21/05:30am 9.1 5.1 2.7 64 2.7 NNW 13 15 7 8 1010.1 1010.2 0.0
21/05:00am 10.0 5.5 2.4 59 3.2 NNW 15 17 8 9 1009.8 1009.9 0.0
21/04:30am 10.7 5.8 2.3 56 3.6 NNW 17 20 9 11 1009.8 1009.9 0.0
21/04:00am 11.5 5.6 2.0 52 4.1 NNW 22 28 12 15 1009.5 1009.6 0.0
21/03:30am 12.0 5.4 1.9 50 4.3 NNW 26 35 14 19 1009.3 1009.4 0.0
21/03:00am 11.5 5.3 2.3 53 4.0 N 24 30 13 16 1009.3 1009.4 0.0
21/02:30am 10.1 4.9 2.5 59 3.3 N 19 22 10 12 1009.5 1009.6 0.0
21/02:00am 10.3 4.9 2.4 58 3.4 N 20 26 11 14 1009.5 1009.6 0.0
21/01:30am 9.7 4.3 2.6 61 3.0 N 20 26 11 14 1009.9 1010.0 0.0
21/01:00am 10.7 4.6 2.5 57 3.5 N 24 33 13 18 1009.4 1009.5 0.0
21/12:30am 10.7 5.5 2.5 57 3.5 N 19 24 10 13 1009.5 1009.6 0.0
21/12:00am 10.6 4.9 2.7 58 3.4 N 22 32 12 17 1009.4 1009.5 0.0
 
Date/Time
EST
Temp
°C
App
Temp
°C
Dew
Point
°C
Rel
Hum
%
Delta-T
°C
Wind Press
QNH
hPa
Press
MSL
hPa
Rain since
9am
mm
Dir  Spd
km/h
Gust
km/h
Spd
kts
Gust
kts
20/11:30pm 10.5 4.8 3.1 60 3.2 N 22 28 12 15 1009.5 1009.6 0.0
20/11:00pm 10.4 4.8 3.2 61 3.1 NNE 22 28 12 15 1009.3 1009.4 0.0
20/10:30pm 10.7 4.7 3.5 61 3.2 NNE 24 32 13 17 1010.2 1010.3 0.0
20/10:00pm 10.8 4.5 3.6 61 3.2 NNE 26 35 14 19 1010.2 1010.3 0.0
20/09:30pm 10.6 5.0 3.6 62 3.1 NNE 22 32 12 17 1010.5 1010.6 0.0
20/09:00pm 9.2 4.0 3.4 67 2.5 NNE 20 24 11 13 1010.7 1010.8 0.0
20/08:30pm 10.0 4.8 3.7 65 2.8 NNE 20 24 11 13 1011.2 1011.3 0.0
20/08:00pm 9.8 5.2 3.5 65 2.8 NNE 17 22 9 12 1011.4 1011.5 0.0
20/07:30pm 10.8 6.2 3.8 62 3.1 NNE 17 20 9 11 1011.5 1011.6 0.0
20/07:00pm 11.7 7.1 3.7 58 3.6 NNE 17 20 9 11 1011.6 1011.7 0.0
20/06:30pm 11.8 7.7 4.3 60 3.4 NNE 15 19 8 10 1011.6 1011.7 0.0
20/06:00pm 13.3 8.8 4.2 54 4.2 NNE 17 20 9 11 1011.6 1011.7 0.0
20/05:30pm 14.8 9.7 4.2 49 4.9 NNE 20 26 11 14 1011.9 1012.0 0.0
20/05:00pm 15.9 10.5 4.3 46 5.4 N 22 32 12 17 1012.2 1012.4 0.0
20/04:30pm 16.7 10.8 4.1 43 5.9 N 24 33 13 18 1012.2 1012.4 0.0
20/04:00pm 17.1 10.0 3.8 41 6.2 N 30 39 16 21 1012.5 1012.7 0.0
20/03:30pm 17.1 9.7 3.8 41 6.2 N 32 41 17 22 1012.8 1013.0 0.0
20/03:00pm 17.2 9.1 3.1 39 6.5 N 35 46 19 25 1013.4 1013.6 0.0
20/02:30pm 17.3 9.6 3.2 39 6.5 N 33 41 18 22 1013.7 1013.9 0.0
20/02:00pm 17.0 10.6 5.3 46 5.6 N 28 37 15 20 1014.1 1014.3 0.0
20/01:30pm 16.6 9.9 5.6 48 5.3 N 30 37 16 20 1014.8 1015.0 0.0
20/01:00pm 16.2 10.7 6.1 51 4.9 N 24 33 13 18 1015.2 1015.4 0.0
20/12:30pm 15.9 11.1 7.4 57 4.2 N 22 30 12 16 1016.1 1016.3 0.0
20/12:00pm 15.0 10.1 6.8 58 4.0 N 22 32 12 17 1017.0 1017.1 0.0
20/11:30am 14.3 10.5 7.4 63 3.4 N 17 26 9 14 1017.7 1017.8 0.0
20/11:00am 12.7 8.8 7.0 68 2.8 N 17 20 9 11 1018.2 1018.3 0.0
20/10:30am 11.3 7.3 6.8 74 2.1 N 17 20 9 11 1018.7 1018.8 0.0
20/10:00am 10.0 6.0 6.7 80 1.5 N 17 22 9 12 1019.0 1019.1 0.0
20/09:30am 8.3 4.2 6.4 88 0.9 NNE 17 20 9 11 1019.2 1019.3 0.0
20/09:00am 6.8 3.1 6.1 95 0.3 NE 15 19 8 10 1019.2 1019.3 0.4
20/08:30am 5.1 1.8 4.8 98 0.1 NE 11 13 6 7 1019.3 1019.4 0.4
20/08:00am 4.0 0.9 3.7 98 0.1 NE 9 13 5 7 1019.2 1019.3 0.4
20/07:30am 4.0 0.5 3.7 98 0.1 NNE 11 13 6 7 1019.2 1019.3 0.4
20/07:00am 4.4 1.0 4.1 98 0.1 NNE 11 15 6 8 1019.3 1019.4 0.4
20/06:30am 4.4 1.4 4.1 98 0.1 NNE 9 13 5 7 1018.9 1019.0 0.4
20/06:00am 4.3 1.3 3.9 97 0.2 NNE 9 13 5 7 1018.8 1018.9 0.4
20/05:30am 4.3 0.8 3.6 95 0.3 NE 11 13 6 7 1018.7 1018.8 0.0
20/05:00am 5.5 2.2 4.8 95 0.3 NNE 11 13 6 7 1018.9 1019.0 0.0
20/04:30am 5.7 1.7 5.0 95 0.3 NNE 15 17 8 9 1019.0 1019.1 0.0
20/04:00am 6.2 2.7 5.6 96 0.3 NNE 13 17 7 9 1019.2 1019.3 0.0
20/03:30am 6.3 3.0 6.2 99 0.0 NNE 13 17 7 9 1019.4 1019.5 0.0
20/03:00am 6.3 3.3 6.2 99 0.0 NNE 11 13 6 7 1019.8 1019.9 0.0
20/02:30am 6.7 3.8 6.6 99 0.0 NNE 11 15 6 8 1019.9 1020.0 0.0
20/02:00am 6.0 3.0 5.9 99 0.0 NE 11 13 6 7 1019.9 1020.0 0.0
20/01:30am 6.5 3.6 6.4 99 0.0 NE 11 13 6 7 1019.9 1020.0 0.0
20/01:00am 6.0 3.4 5.9 99 0.0 NNE 9 11 5 6 1020.2 1020.3 0.0
20/12:30am 7.0 3.8 6.9 99 0.0 NE 13 15 7 8 1020.5 1020.6 0.0
20/12:00am 6.9 4.1 6.8 99 0.0 NE 11 13 6 7 1020.8 1020.9 0.0
 
Date/Time
EST
Temp
°C
App
Temp
°C
Dew
Point
°C
Rel
Hum
%
Delta-T
°C
Wind Press
QNH
hPa
Press
MSL
hPa
Rain since
9am
mm
Dir  Spd
km/h
Gust
km/h
Spd
kts
Gust
kts
19/11:30pm 6.9 4.5 6.8 99 0.0 NNE 9 11 5 6 1021.1 1021.2 0.0
19/11:00pm 6.7 3.8 6.6 99 0.0 NE 11 13 6 7 1021.2 1021.3 0.0
19/10:30pm 8.0 5.5 8.0 100 0.0 NNE 11 13 6 7 1021.1 1021.2 0.0
19/10:00pm 7.7 5.1 7.7 100 0.0 NE 11 11 6 6 1021.3 1021.4 0.0
19/09:30pm 8.0 5.8 8.0 100 0.0 NE 9 11 5 6 1021.4 1021.5 0.0
19/09:00pm 8.7 6.7 8.7 100 0.0 ENE 9 11 5 6 1021.3 1021.4 0.0
19/08:30pm 9.6 7.8 9.6 100 0.0 NE 9 11 5 6 1021.2 1021.3 0.0
19/08:00pm 9.5 7.7 9.5 100 0.0 ENE 9 9 5 5 1021.0 1021.1 0.0
19/07:30pm 9.2 7.3 9.1 99 0.0 ENE 9 9 5 5 1020.8 1020.9 0.0
19/07:00pm 9.8 8.1 9.7 99 0.1 ENE 9 13 5 7 1020.7 1020.8 0.0
19/06:30pm 10.6 9.0 10.1 97 0.3 E 9 11 5 6 1020.5 1020.6 0.0
19/06:00pm 11.9 10.1 11.0 94 0.5 ESE 11 15 6 8 1020.5 1020.6 0.0
19/05:30pm 12.8 11.0 11.0 89 0.9 E 11 13 6 7 1020.3 1020.4 0.0
19/05:00pm 14.1 12.1 11.6 85 1.3 E 13 15 7 8 1020.3 1020.4 0.0
19/04:30pm 14.0 12.4 11.5 85 1.3 E 11 13 6 7 1020.2 1020.3 0.0
19/04:00pm 14.4 13.2 11.6 83 1.5 ENE 9 11 5 6 1020.3 1020.4 0.0
19/03:30pm 14.6 13.6 11.0 79 1.9 ENE 7 13 4 7 1020.3 1020.4 0.0
19/03:00pm 14.9 14.0 11.3 79 1.9 NNE 7 13 4 7 1020.4 1020.5 0.0
19/02:30pm 15.0 14.7 11.6 80 1.8 NNW 4 6 2 3 1020.5 1020.6 0.0
19/02:00pm 13.7 14.0 12.1 90 0.9 WSW 2 7 1 4 1020.7 1020.8 0.0
19/01:30pm 12.7 12.5 11.9 95 0.4 WNW 4 6 2 3 1021.1 1021.2 0.0
19/01:00pm 12.0 11.9 12.0 100 0.0 W 4 6 2 3 1021.3 1021.4 0.0
19/12:30pm 11.6 11.3 11.6 100 0.0 WNW 4 7 2 4 1021.8 1021.9 0.0
19/12:00pm 10.4 9.8 10.4 100 0.0 WSW 4 9 2 5 1022.3 1022.4 0.0
19/11:30am 10.1 9.0 10.1 100 0.0 WNW 6 9 3 5 1022.7 1022.8 0.0
19/11:00am 9.5 9.0 9.5 100 0.0 S 2 4 1 2 1022.8 1022.9 0.0
19/10:30am 9.2 8.7 9.2 100 0.0 N 2 6 1 3 1022.9 1023.1 0.0
19/10:00am 8.7 7.7 8.7 100 0.0 WSW 4 7 2 4 1022.7 1022.8 0.0
19/09:30am 8.6 7.0 8.6 100 0.0 WNW 7 13 4 7 1022.5 1022.6 0.0
19/09:00am 8.3 6.6 8.3 100 0.0 WNW 7 9 4 5 1022.1 1022.2 0.0
19/08:30am 8.1 6.5 8.1 100 0.0 NNW 6 9 3 5 1021.9 1022.0 0.0
19/08:00am 7.9 6.1 7.9 100 0.0 NW 7 7 4 4 1021.6 1021.7 0.0
19/07:30am 7.7 5.5 7.7 100 0.0 NW 9 11 5 6 1021.4 1021.5 0.0
19/07:00am 7.2 4.5 7.2 100 0.0 NW 11 13 6 7 1021.1 1021.2 0.0
19/06:30am 6.3 4.1 6.3 100 0.0 NW 7 11 4 6 1020.9 1021.0 0.0
19/06:00am 5.0 1.8 4.9 99 0.0 NNW 11 13 6 7 1020.5 1020.6 0.0
19/05:30am 4.7 1.8 4.6 99 0.0 NW 9 9 5 5 1020.3 1020.4 0.0
19/05:00am 5.7 3.0 5.6 99 0.0 NW 9 11 5 6 1020.1 1020.2 0.0
19/04:30am 6.2 3.6 6.1 99 0.0 NW 9 9 5 5 1019.9 1020.0 0.0
19/04:00am 7.0 5.0 6.9 99 0.0 WNW 7 9 4 5 1019.9 1020.0 0.0
19/03:30am 7.3 5.3 7.2 99 0.0 WNW 7 9 4 5 1019.9 1020.0 0.0
19/03:00am 7.3 5.5 7.2 99 0.0 NW 6 7 3 4 1019.9 1020.0 0.0
19/02:30am 7.3 4.9 7.2 99 0.0 NW 9 11 5 6 1019.7 1019.8 0.0
19/02:00am 7.3 4.9 7.2 99 0.0 NW 9 13 5 7 1019.5 1019.6 0.0
19/01:30am 7.0 4.5 6.7 98 0.1 NNW 9 11 5 6 1019.4 1019.5 0.0
19/01:00am 6.4 4.3 5.8 96 0.3 NNW 6 7 3 4 1019.4 1019.5 0.0
19/12:30am 6.9 4.3 6.2 95 0.3 NW 9 13 5 7 1019.2 1019.3 0.0
19/12:00am 7.2 3.9 6.5 95 0.3 NW 13 13 7 7 1019.4 1019.5 0.0
 
Date/Time
EST
Temp
°C
App
Temp
°C
Dew
Point
°C
Rel
Hum
%
Delta-T
°C
Wind Press
QNH
hPa
Press
MSL
hPa
Rain since
9am
mm
Dir  Spd
km/h
Gust
km/h
Spd
kts
Gust
kts
18/11:30pm 7.8 5.0 6.9 94 0.4 NW 11 13 6 7 1019.4 1019.5 0.0
18/11:00pm 8.4 5.0 7.8 96 0.3 WNW 15 19 8 10 1019.5 1019.6 0.0

Other formats

Comma delimited format used in spreadsheet applications
http://www.bom.gov.au/fwo/IDV60801/IDV60801.94838.axf

JavaScript Object Notation format (JSON) in row-major order
http://www.bom.gov.au/fwo/IDV60801/IDV60801.94838.json

Data quality

Most of these data are generated automatically and are frequently updated. Quality checks on data are not normally performed. It is possible for incorrect values to appear. Refer to information at About Latest Weather Observations and please check the disclaimer before using these data.